ダラス/フォートワース の空港の天気 - METARとTAF

ダラス・フォートワース国際空港 ( KDFW / DFW ) - アメリカ テキサス州ダラス & フォートワース
飛行場実況気象(Metar)
観測時間11/27 02:53 CST (11/27 08:53 UTC)
風向・風速西南西 4m/s
視程10km以上
天気現象
全天の4割程度の雲 雲底高度 1520m
気温7.8℃
湿度89%
気圧1007.9hPa
METARKDFW 270853Z 24008KT 10SM SCT050 08/06 A2977 RMK AO2 SLP079 T00780061 53008
過去の天気等 Google飛行場航空写真 Wunderground天気予報

過去48時間のMETAR

飛行場予報(TAF)
発表時間: 11/27 02:55 CST (11/27 08:55 UTC)
予報対象時間: 27日3時 CST ~ 28日6時 CST
風向・風速西南西 4m/s
視程10km以上
少しの雲 雲底高度 1520m
27日12時 CST から
風向・風速北北西 4m/s
視程10km以上
全天の8割程度の雲 雲底高度 760m
27日17時 CST から
風向・風速北北西 4m/s
視程10km以上
全天の4割程度の雲 雲底高度 1220m
27日23時 CST から
風向・風速西 2m/s
視程10km以上
少しの雲 雲底高度 7620m
KDFW 270855Z 2709/2812 24008KT P6SM FEW050
FM271800 34007KT P6SM BKN025
FM272300 33007KT P6SM SCT040
FM280500 27003KT P6SM FEW250